Time;durP1;ratioP1;P1;durP2;ratioP2;P2;SDS_P1;SDS_P2;PMS_P1;PMS_P2;Temp;Humidity;BMP_temperature;BMP_pressure;BME280_temperature;BME280_humidity;BME280_pressure;Samples;Min_cycle;Max_cycle;Signal;HPM_P1;HPM_P2
2021/10/03 00:02:12;;;;;;;3.37;2.60;;;17.20;1.00;;;;;;5033275;28;20209;-66
2021/10/03 00:04:41;;;;;;;3.47;2.60;;;17.20;1.00;;;;;;5032938;28;20215;-66
2021/10/03 00:07:10;;;;;;;3.20;2.60;;;17.20;6.30;;;;;;5033030;28;20268;-65
2021/10/03 00:09:38;;;;;;;2.87;2.60;;;17.20;73.20;;;;;;5033319;28;20226;-66
2021/10/03 00:12:05;;;;;;;8.37;3.13;;;17.20;99.90;;;;;;5033367;28;20210;-66
2021/10/03 00:14:31;;;;;;;4.13;2.57;;;17.10;99.90;;;;;;5032972;28;20210;-66
2021/10/03 00:16:58;;;;;;;4.20;3.10;;;17.10;1.00;;;;;;5033009;28;20725;-66
2021/10/03 00:19:25;;;;;;;5.10;3.30;;;17.10;1.00;;;;;;5032744;28;20283;-66
2021/10/03 00:21:53;;;;;;;5.57;2.90;;;17.10;1.00;;;;;;5033184;28;20209;-66
2021/10/03 00:24:20;;;;;;;3.87;2.50;;;17.10;99.90;;;;;;5032868;28;20206;-66
2021/10/03 00:26:48;;;;;;;2.93;2.50;;;17.10;99.90;;;;;;5032502;28;20233;-66
2021/10/03 00:29:14;;;;;;;5.47;2.80;;;17.00;99.90;;;;;;5032873;28;20280;-66
2021/10/03 00:31:41;;;;;;;4.27;3.00;;;16.90;71.70;;;;;;5032545;28;20206;-66
2021/10/03 00:34:08;;;;;;;4.03;2.80;;;16.70;31.00;;;;;;5032672;28;20630;-66
2021/10/03 00:36:34;;;;;;;2.87;2.50;;;16.70;99.90;;;;;;5032514;28;20206;-66
2021/10/03 00:39:01;;;;;;;4.00;2.77;;;16.60;17.70;;;;;;5032835;28;20226;-65
2021/10/03 00:41:28;;;;;;;4.30;2.87;;;16.50;99.90;;;;;;5032677;28;20626;-66
2021/10/03 00:43:57;;;;;;;8.00;2.87;;;16.50;99.90;;;;;;5032528;28;20233;-66
2021/10/03 00:46:24;;;;;;;6.80;3.17;;;16.40;27.30;;;;;;5032103;28;20222;-66
2021/10/03 00:48:51;;;;;;;5.20;2.90;;;16.40;99.90;;;;;;5032108;28;20656;-66
2021/10/03 00:51:18;;;;;;;4.27;3.20;;;16.30;1.00;;;;;;5032668;28;20202;-66
2021/10/03 00:53:44;;;;;;;5.80;3.37;;;16.20;57.10;;;;;;5032500;28;20260;-66
2021/10/03 00:56:15;;;;;;;3.67;3.13;;;16.20;99.90;;;;;;5032166;28;20724;-68
2021/10/03 00:58:42;;;;;;;4.00;3.00;;;16.10;99.90;;;;;;5032311;28;20226;-69
2021/10/03 01:01:10;;;;;;;5.10;3.73;;;16.00;99.90;;;;;;5032211;28;20233;-68
2021/10/03 01:03:38;;;;;;;4.87;3.00;;;16.00;1.00;;;;;;5032368;28;20206;-66
2021/10/03 01:06:06;;;;;;;4.17;3.27;;;16.00;1.00;;;;;;5031943;28;20226;-66
2021/10/03 01:08:32;;;;;;;7.10;3.60;;;15.90;1.00;;;;;;5032268;28;20303;-66
2021/10/03 01:10:59;;;;;;;3.53;3.13;;;15.90;1.00;;;;;;5032182;28;20272;-65
2021/10/03 01:13:26;;;;;;;5.20;3.30;;;15.90;1.00;;;;;;5032174;28;20264;-65
2021/10/03 01:15:54;;;;;;;3.50;3.20;;;15.80;1.00;;;;;;5031486;28;20252;-66
2021/10/03 01:18:24;;;;;;;3.97;3.10;;;15.80;1.00;;;;;;5032007;28;20230;-65
2021/10/03 01:20:51;;;;;;;4.80;3.10;;;15.80;1.00;;;;;;5032046;28;20304;-65
2021/10/03 01:23:20;;;;;;;5.60;3.60;;;15.80;1.00;;;;;;5031987;28;20210;-66
2021/10/03 01:25:49;;;;;;;6.80;3.67;;;15.80;1.00;;;;;;5031624;28;20218;-66
2021/10/03 01:28:17;;;;;;;4.90;2.93;;;15.90;1.00;;;;;;5031901;28;20288;-66
2021/10/03 01:30:48;;;;;;;3.57;3.07;;;15.90;99.90;;;;;;5031922;28;20207;-66
2021/10/03 01:33:16;;;;;;;4.53;3.00;;;15.90;99.90;;;;;;5032059;28;20214;-65
2021/10/03 01:35:43;;;;;;;3.50;2.50;;;15.90;99.90;;;;;;5031545;28;20206;-66
2021/10/03 01:38:11;;;;;;;3.87;3.00;;;16.00;99.90;;;;;;5031828;28;20226;-66
2021/10/03 01:40:40;;;;;;;5.50;2.60;;;16.00;1.00;;;;;;5031792;28;20624;-66
2021/10/03 01:43:06;;;;;;;4.37;3.03;;;16.10;1.00;;;;;;5033335;28;20210;-66
2021/10/03 01:45:33;;;;;;;7.00;2.70;;;16.00;1.00;;;;;;5035716;28;20207;-66
2021/10/03 01:48:07;;;;;;;4.50;2.80;;;16.10;99.90;;;;;;5035827;28;20741;-66
2021/10/03 01:50:37;;;;;;;5.83;3.10;;;16.10;99.90;;;;;;5035701;28;20205;-66
2021/10/03 01:53:06;;;;;;;3.63;2.90;;;16.10;99.90;;;;;;5035779;28;20661;-66
2021/10/03 01:55:33;;;;;;;4.40;2.87;;;16.10;1.00;;;;;;5035139;28;20297;-66
2021/10/03 01:58:01;;;;;;;3.17;2.83;;;16.10;1.00;;;;;;5035901;28;20212;-68
2021/10/03 02:00:28;;;;;;;4.13;3.00;;;16.10;1.00;;;;;;5035718;28;20210;-68
2021/10/03 02:02:59;;;;;;;2.90;2.40;;;16.10;99.90;;;;;;5035718;28;20203;-66
2021/10/03 02:05:27;;;;;;;4.23;2.60;;;16.10;1.00;;;;;;5035093;28;20301;-66
2021/10/03 02:07:54;;;;;;;3.67;2.37;;;16.20;99.90;;;;;;5035349;28;20206;-66
2021/10/03 02:10:21;;;;;;;3.77;2.30;;;16.20;33.30;;;;;;5035741;28;20210;-65
2021/10/03 02:12:49;;;;;;;3.07;2.20;;;16.20;1.00;;;;;;5035561;28;20206;-65
2021/10/03 02:15:17;;;;;;;2.60;2.10;;;16.20;99.90;;;;;;5035096;28;20624;-66
2021/10/03 02:17:44;;;;;;;2.90;2.20;;;16.20;99.90;;;;;;5035345;28;20293;-65
2021/10/03 02:20:11;;;;;;;3.40;2.20;;;16.20;84.30;;;;;;5035309;28;20206;-66
2021/10/03 02:22:39;;;;;;;2.90;1.90;;;16.20;99.90;;;;;;5035147;28;20740;-65
2021/10/03 02:25:06;;;;;;;3.70;2.07;;;16.30;1.00;;;;;;5035029;28;20213;-66
2021/10/03 02:27:33;;;;;;;3.87;2.20;;;16.30;1.00;;;;;;5035302;28;20233;-65
2021/10/03 02:29:59;;;;;;;4.57;2.17;;;16.20;99.90;;;;;;5035000;28;20365;-66
2021/10/03 02:32:27;;;;;;;3.00;2.13;;;16.30;99.90;;;;;;5035098;28;20267;-66
2021/10/03 02:34:54;;;;;;;4.97;2.30;;;16.20;99.90;;;;;;5034397;28;20624;-68
2021/10/03 02:37:21;;;;;;;4.33;1.97;;;16.30;1.00;;;;;;5035255;28;20206;-66
2021/10/03 02:39:47;;;;;;;2.73;2.10;;;16.30;99.90;;;;;;5034934;28;20226;-69
2021/10/03 02:42:14;;;;;;;3.97;2.37;;;16.30;99.90;;;;;;5035006;28;20202;-68
2021/10/03 02:44:41;;;;;;;6.30;2.10;;;16.30;99.90;;;;;;5034344;28;20260;-68
2021/10/03 02:47:11;;;;;;;2.40;2.00;;;16.30;99.90;;;;;;5034811;28;20225;-68
2021/10/03 02:49:40;;;;;;;3.47;2.00;;;16.30;1.00;;;;;;5034560;28;20241;-66
2021/10/03 02:52:07;;;;;;;2.20;1.70;;;16.30;1.00;;;;;;5034728;28;20207;-66
2021/10/03 02:54:33;;;;;;;2.93;2.20;;;16.30;99.90;;;;;;5034406;28;20238;-66
2021/10/03 02:57:00;;;;;;;2.63;2.00;;;16.30;99.90;;;;;;5034554;28;20206;-66
2021/10/03 02:59:27;;;;;;;2.70;1.97;;;16.50;42.10;;;;;;5034451;28;20222;-66
2021/10/03 03:01:53;;;;;;;4.10;2.20;;;16.50;99.90;;;;;;5034331;28;20206;-66
2021/10/03 03:04:20;;;;;;;3.20;2.43;;;16.40;99.90;;;;;;5034617;28;20229;-66
2021/10/03 03:06:48;;;;;;;4.17;2.10;;;16.40;99.90;;;;;;5034169;28;20572;-66
2021/10/03 03:09:14;;;;;;;6.23;2.33;;;16.30;1.00;;;;;;5034354;28;20235;-65
2021/10/03 03:11:41;;;;;;;3.87;2.37;;;16.30;1.00;;;;;;5034330;28;20210;-66
2021/10/03 03:14:09;;;;;;;3.90;2.40;;;16.20;99.90;;;;;;5034178;28;20206;-66
2021/10/03 03:16:42;;;;;;;3.20;2.77;;;16.10;99.90;;;;;;5033693;28;20202;-66
2021/10/03 03:19:08;;;;;;;3.57;2.50;;;16.00;99.90;;;;;;5034391;28;20253;-66
2021/10/03 03:21:35;;;;;;;5.53;3.33;;;15.90;99.90;;;;;;5034210;28;20210;-65
2021/10/03 03:24:04;;;;;;;3.27;2.73;;;15.90;99.90;;;;;;5034087;28;20256;-65
2021/10/03 03:26:30;;;;;;;6.50;2.90;;;15.80;99.90;;;;;;5033696;28;20693;-66
2021/10/03 03:28:57;;;;;;;6.47;2.87;;;15.80;60.40;;;;;;5033816;28;20226;-66
2021/10/03 03:31:24;;;;;;;3.83;3.03;;;15.80;1.00;;;;;;5034039;28;20272;-65
2021/10/03 03:33:51;;;;;;;4.00;3.20;;;15.80;99.90;;;;;;5034040;28;20260;-66
2021/10/03 03:36:18;;;;;;;3.80;3.20;;;15.70;1.00;;;;;;5033514;28;20202;-66
2021/10/03 03:38:46;;;;;;;4.33;3.27;;;15.60;1.00;;;;;;5033648;28;20222;-66
2021/10/03 03:41:14;;;;;;;5.07;3.20;;;15.70;1.00;;;;;;5033820;28;20206;-66
2021/10/03 03:43:42;;;;;;;5.17;3.03;;;15.60;1.00;;;;;;5033608;28;20235;-66
2021/10/03 03:46:09;;;;;;;4.53;3.27;;;15.60;17.60;;;;;;5033778;28;20214;-66
2021/10/03 03:48:36;;;;;;;3.83;3.20;;;15.60;44.70;;;;;;5033500;28;20639;-66
2021/10/03 03:51:03;;;;;;;5.40;3.53;;;15.60;99.90;;;;;;5034043;28;20228;-66
2021/10/03 03:53:30;;;;;;;6.10;3.47;;;15.60;1.00;;;;;;5034603;28;20264;-65
2021/10/03 03:55:57;;;;;;;6.20;4.13;;;15.60;99.90;;;;;;5033734;28;20264;-65
2021/10/03 03:58:25;;;;;;;5.63;4.07;;;15.60;99.90;;;;;;5032943;28;20281;-66
2021/10/03 04:00:51;;;;;;;5.83;4.07;;;15.50;99.90;;;;;;5033259;28;20242;-66
2021/10/03 04:03:18;;;;;;;6.23;4.03;;;15.50;99.90;;;;;;5033368;28;20202;-66
2021/10/03 04:05:45;;;;;;;5.17;3.97;;;15.50;99.90;;;;;;5032201;28;20607;-65
2021/10/03 04:08:11;;;;;;;7.50;4.80;;;15.50;1.00;;;;;;5033115;28;20234;-65
2021/10/03 04:10:38;;;;;;;7.40;4.30;;;15.50;1.00;;;;;;5032974;28;20228;-66
2021/10/03 04:13:06;;;;;;;5.90;3.97;;;15.40;1.00;;;;;;5032909;28;20214;-66
2021/10/03 04:15:34;;;;;;;6.07;4.60;;;15.50;1.00;;;;;;5032584;28;20218;-65
2021/10/03 04:18:00;;;;;;;5.83;4.37;;;15.50;1.00;;;;;;5033060;28;20202;-66
2021/10/03 04:20:27;;;;;;;5.43;4.30;;;15.50;1.00;;;;;;5032701;28;20729;-66
2021/10/03 04:22:54;;;;;;;7.47;4.37;;;15.50;1.00;;;;;;5032809;28;20214;-66
2021/10/03 04:25:21;;;;;;;6.40;4.53;;;15.50;1.00;;;;;;5032478;28;20262;-68
2021/10/03 04:27:47;;;;;;;6.80;5.20;;;15.60;1.00;;;;;;5032823;28;20234;-65
2021/10/03 04:30:14;;;;;;;7.60;4.80;;;15.50;1.00;;;;;;5032963;28;20222;-66
2021/10/03 04:32:42;;;;;;;6.23;4.83;;;15.50;1.00;;;;;;5032844;28;20206;-66
2021/10/03 04:35:10;;;;;;;7.33;5.53;;;15.40;1.00;;;;;;5032430;28;20211;-65
2021/10/03 04:37:36;;;;;;;7.03;5.13;;;15.40;1.00;;;;;;5032619;28;20554;-67
2021/10/03 04:40:04;;;;;;;7.87;5.33;;;15.40;1.00;;;;;;5032540;28;20237;-65
2021/10/03 04:42:31;;;;;;;7.93;5.37;;;15.40;1.00;;;;;;5032659;28;20206;-66
2021/10/03 04:44:57;;;;;;;8.47;6.10;;;15.40;1.00;;;;;;5032140;28;20733;-66
2021/10/03 04:47:24;;;;;;;9.43;5.97;;;15.30;28.70;;;;;;5032659;28;20275;-66
2021/10/03 04:49:54;;;;;;;10.27;5.80;;;15.30;44.10;;;;;;5032192;28;20264;-66
2021/10/03 04:52:21;;;;;;;8.40;5.80;;;15.30;62.80;;;;;;5032490;28;20210;-66
2021/10/03 04:54:48;;;;;;;10.97;6.57;;;15.30;66.50;;;;;;5032156;28;20217;-66
2021/10/03 04:57:15;;;;;;;8.87;5.80;;;15.30;99.90;;;;;;5032478;28;20202;-66
2021/10/03 04:59:41;;;;;;;10.80;6.60;;;15.30;97.40;;;;;;5032236;28;20280;-66
2021/10/03 05:02:08;;;;;;;7.07;5.70;;;15.30;98.40;;;;;;5032341;28;20213;-66
2021/10/03 05:04:34;;;;;;;9.30;6.47;;;15.30;64.60;;;;;;5032080;28;20210;-66
2021/10/03 05:07:03;;;;;;;9.63;6.70;;;15.30;68.60;;;;;;5031902;28;20262;-66
2021/10/03 05:09:30;;;;;;;10.03;7.40;;;15.20;98.00;;;;;;5032319;28;20283;-66
2021/10/03 05:11:56;;;;;;;9.60;6.30;;;15.30;66.10;;;;;;5032198;28;20206;-66
2021/10/03 05:14:23;;;;;;;9.50;6.33;;;15.30;75.20;;;;;;5032168;28;20268;-66
2021/10/03 05:16:50;;;;;;;10.63;7.27;;;15.30;91.50;;;;;;5031252;28;20202;-66
2021/10/03 05:19:16;;;;;;;8.37;6.60;;;15.20;83.10;;;;;;5031690;28;20280;-66
2021/10/03 05:21:43;;;;;;;12.77;6.40;;;15.20;94.80;;;;;;5031859;28;20211;-66
2021/10/03 05:24:11;;;;;;;10.03;6.87;;;15.30;88.10;;;;;;5032153;28;20206;-66
2021/10/03 05:26:38;;;;;;;8.90;6.93;;;15.30;77.20;;;;;;5031662;28;20210;-66
2021/10/03 05:29:04;;;;;;;8.47;6.53;;;15.30;47.20;;;;;;5031868;28;20280;-66
2021/10/03 05:31:31;;;;;;;11.50;6.73;;;15.30;25.20;;;;;;5032019;28;20210;-66
2021/10/03 05:33:58;;;;;;;7.53;6.70;;;15.30;55.10;;;;;;5031776;28;20213;-66
2021/10/03 05:36:25;;;;;;;9.73;6.70;;;15.30;48.70;;;;;;5031421;28;20297;-66
2021/10/03 05:38:53;;;;;;;7.77;6.73;;;15.30;41.70;;;;;;5031974;28;20653;-66
2021/10/03 05:41:21;;;;;;;8.13;6.70;;;15.30;54.60;;;;;;5031811;28;20252;-66
2021/10/03 05:43:48;;;;;;;13.80;7.27;;;15.30;79.00;;;;;;5031830;28;20207;-66
2021/10/03 05:46:14;;;;;;;10.57;7.30;;;15.30;99.90;;;;;;5031402;28;20234;-65
2021/10/03 05:48:41;;;;;;;10.93;7.57;;;15.30;81.40;;;;;;5031340;28;20226;-66
2021/10/03 05:51:09;;;;;;;10.63;7.10;;;15.40;82.00;;;;;;5031768;28;20206;-66
2021/10/03 05:53:35;;;;;;;8.43;6.50;;;15.40;93.70;;;;;;5031826;28;20206;-66
2021/10/03 05:56:02;;;;;;;10.33;7.30;;;15.30;99.40;;;;;;5031375;28;20260;-66
2021/10/03 05:58:30;;;;;;;11.23;7.10;;;15.40;99.90;;;;;;5031687;28;20222;-66
2021/10/03 06:00:57;;;;;;;10.60;7.30;;;15.40;67.60;;;;;;5031621;28;20206;-66
2021/10/03 06:03:23;;;;;;;12.37;7.77;;;15.40;81.80;;;;;;5031490;28;20296;-66
2021/10/03 06:05:50;;;;;;;10.47;6.87;;;15.40;51.00;;;;;;5031208;28;20736;-66
2021/10/03 06:08:17;;;;;;;9.33;6.80;;;15.50;29.80;;;;;;5031507;28;20586;-66
2021/10/03 06:10:44;;;;;;;11.03;7.37;;;15.50;21.30;;;;;;5031630;28;20211;-66
2021/10/03 06:13:11;;;;;;;9.87;7.17;;;15.50;16.70;;;;;;5031492;28;20210;-66
2021/10/03 06:15:43;;;;;;;10.80;7.53;;;15.50;20.70;;;;;;5031150;28;20630;-67
2021/10/03 06:18:09;;;;;;;10.87;7.10;;;15.50;58.70;;;;;;5031531;28;20592;-66
2021/10/03 06:20:36;;;;;;;11.70;7.90;;;15.50;62.50;;;;;;5031642;28;20618;-67
2021/10/03 06:23:03;;;;;;;11.70;7.67;;;15.50;76.60;;;;;;5031508;28;20210;-67
2021/10/03 06:25:30;;;;;;;12.37;8.00;;;15.60;34.20;;;;;;5031073;28;20260;-67
2021/10/03 06:27:56;;;;;;;10.70;7.63;;;15.60;56.50;;;;;;5031356;28;20276;-67
2021/10/03 06:30:23;;;;;;;10.93;7.00;;;15.60;73.10;;;;;;5034608;28;20586;-67
2021/10/03 06:32:54;;;;;;;11.87;8.00;;;15.60;99.90;;;;;;5035350;28;20233;-67
2021/10/03 06:35:21;;;;;;;11.53;6.73;;;15.60;82.50;;;;;;5034945;28;20217;-67
2021/10/03 06:37:48;;;;;;;10.37;7.17;;;15.60;67.40;;;;;;5035054;28;20202;-67
2021/10/03 06:40:14;;;;;;;9.40;7.03;;;15.70;36.90;;;;;;5034987;28;20214;-67
2021/10/03 06:42:41;;;;;;;11.23;7.47;;;15.70;42.20;;;;;;5034886;28;20617;-67
2021/10/03 06:45:08;;;;;;;9.30;6.50;;;15.70;16.70;;;;;;5034302;28;20786;-67
2021/10/03 06:47:34;;;;;;;11.37;7.30;;;15.70;6.80;;;;;;5034855;28;20272;-67
2021/10/03 06:50:03;;;;;;;10.87;7.20;;;15.70;1.00;;;;;;5034745;28;20265;-67
2021/10/03 06:52:30;;;;;;;9.60;7.77;;;15.70;1.00;;;;;;5034783;28;20628;-67
2021/10/03 06:54:57;;;;;;;8.63;7.03;;;15.80;1.00;;;;;;5034431;28;20210;-67
2021/10/03 06:57:23;;;;;;;9.57;7.30;;;15.70;1.00;;;;;;5034554;28;20228;-67
2021/10/03 06:59:50;;;;;;;9.23;6.77;;;15.80;1.00;;;;;;5034679;28;20230;-67
2021/10/03 07:02:21;;;;;;;9.60;7.40;;;15.80;1.00;;;;;;5034729;28;20210;-67
2021/10/03 07:04:47;;;;;;;12.23;7.67;;;15.80;1.00;;;;;;5034263;28;20206;-67
2021/10/03 07:07:15;;;;;;;10.83;7.07;;;15.80;1.00;;;;;;5034403;28;20205;-68
2021/10/03 07:09:42;;;;;;;10.90;6.97;;;15.80;1.00;;;;;;5034166;28;20316;-68
2021/10/03 07:12:09;;;;;;;10.80;7.50;;;15.80;1.00;;;;;;5034358;28;20213;-68
2021/10/03 07:14:35;;;;;;;8.23;6.43;;;15.90;1.00;;;;;;5034170;28;20260;-68
2021/10/03 07:17:02;;;;;;;8.37;6.80;;;15.90;1.00;;;;;;5034372;28;20206;-68
2021/10/03 07:19:29;;;;;;;8.70;6.90;;;15.90;1.00;;;;;;5034308;28;20227;-66
2021/10/03 07:21:56;;;;;;;10.60;6.47;;;15.90;1.00;;;;;;5034118;28;20271;-68
2021/10/03 07:24:24;;;;;;;8.90;6.47;;;16.00;1.00;;;;;;5033999;28;20214;-68
2021/10/03 07:26:50;;;;;;;8.73;6.73;;;15.90;1.00;;;;;;5033919;28;20600;-68
2021/10/03 07:29:17;;;;;;;7.77;6.20;;;15.90;1.00;;;;;;5033861;28;20776;-68
2021/10/03 07:31:44;;;;;;;8.00;6.07;;;16.00;1.00;;;;;;5030838;28;20674;-67
2021/10/03 07:34:11;;;;;;;10.37;6.63;;;16.00;1.00;;;;;;5033835;28;20215;-68
2021/10/03 07:36:37;;;;;;;9.83;7.00;;;16.00;1.00;;;;;;5033505;28;20206;-68
2021/10/03 07:39:04;;;;;;;8.83;6.30;;;16.10;1.00;;;;;;5033350;28;20284;-68
2021/10/03 07:41:32;;;;;;;8.50;6.10;;;16.10;99.90;;;;;;5032866;28;20210;-68
2021/10/03 07:43:59;;;;;;;8.13;6.43;;;16.20;1.00;;;;;;5033681;28;20228;-68
2021/10/03 07:46:26;;;;;;;10.13;6.63;;;16.20;99.90;;;;;;5033406;28;20631;-67
2021/10/03 07:48:53;;;;;;;9.97;6.60;;;16.10;1.00;;;;;;5033218;28;20230;-67
2021/10/03 07:51:19;;;;;;;7.77;6.20;;;16.10;1.00;;;;;;5033387;28;20313;-67
2021/10/03 07:53:46;;;;;;;9.67;6.40;;;16.10;1.00;;;;;;5033381;28;20214;-67
2021/10/03 07:56:13;;;;;;;10.97;6.37;;;16.10;1.00;;;;;;5033272;28;20353;-67
2021/10/03 07:58:41;;;;;;;8.63;6.50;;;16.10;1.00;;;;;;5033338;28;20218;-67
2021/10/03 08:01:08;;;;;;;9.37;6.13;;;16.10;1.00;;;;;;5033201;28;20202;-67
2021/10/03 08:03:37;;;;;;;10.07;6.73;;;16.10;1.00;;;;;;5033435;28;20263;-67
2021/10/03 08:06:04;;;;;;;8.83;6.27;;;16.00;1.00;;;;;;5032768;28;20305;-68
2021/10/03 08:08:31;;;;;;;12.93;7.43;;;16.00;1.00;;;;;;5032926;28;20238;-67
2021/10/03 08:10:57;;;;;;;8.37;6.97;;;16.00;1.00;;;;;;5033054;28;20210;-67
2021/10/03 08:13:24;;;;;;;11.87;7.20;;;16.00;1.00;;;;;;5033100;28;20261;-67
2021/10/03 08:15:52;;;;;;;8.83;7.33;;;16.00;1.00;;;;;;5032583;28;20210;-67
2021/10/03 08:18:18;;;;;;;8.07;6.63;;;15.90;18.60;;;;;;5032876;28;20230;-67
2021/10/03 08:20:47;;;;;;;8.97;6.83;;;15.90;11.30;;;;;;5027503;28;20256;-66
2021/10/03 08:23:14;;;;;;;9.93;7.13;;;15.90;1.00;;;;;;5031907;28;20755;-65
2021/10/03 08:25:41;;;;;;;12.57;6.90;;;15.90;34.10;;;;;;5032451;28;20671;-65
2021/10/03 08:28:07;;;;;;;12.93;7.00;;;15.90;1.00;;;;;;5032463;28;20237;-67
2021/10/03 08:30:34;;;;;;;11.50;9.03;;;15.90;29.10;;;;;;5030355;28;20301;-68
2021/10/03 08:33:02;;;;;;;9.57;6.60;;;15.90;9.20;;;;;;5032268;28;20210;-65
2021/10/03 08:35:29;;;;;;;8.63;6.60;;;15.90;20.70;;;;;;5031776;28;20297;-66
2021/10/03 08:37:56;;;;;;;10.70;7.00;;;15.90;1.00;;;;;;5031967;28;20721;-65
2021/10/03 08:40:23;;;;;;;10.10;7.03;;;16.00;1.00;;;;;;5031893;28;20260;-65
2021/10/03 08:42:50;;;;;;;8.20;6.37;;;16.00;1.00;;;;;;5032046;28;20260;-66
2021/10/03 08:45:16;;;;;;;8.90;6.37;;;16.00;1.00;;;;;;5031933;28;20210;-66
2021/10/03 08:47:43;;;;;;;8.07;6.43;;;16.00;1.00;;;;;;5031853;28;20213;-66
2021/10/03 08:50:13;;;;;;;8.87;6.50;;;16.00;1.00;;;;;;5032168;28;20214;-66
2021/10/03 08:52:42;;;;;;;10.30;6.73;;;16.00;1.00;;;;;;5031779;28;20229;-67
2021/10/03 08:55:10;;;;;;;7.97;6.37;;;16.00;1.00;;;;;;5031968;28;20257;-67
2021/10/03 08:57:38;;;;;;;8.93;6.60;;;16.00;1.00;;;;;;5032194;28;20214;-67
2021/10/03 09:00:10;;;;;;;9.83;6.73;;;16.00;1.00;;;;;;5032114;28;20233;-67
2021/10/03 09:03:02;;;;;;;8.50;6.53;;;16.10;1.00;;;;;;5031708;28;20198;-67
2021/10/03 09:05:32;;;;;;;8.57;6.53;;;16.00;1.00;;;;;;5031599;28;20224;-67
2021/10/03 09:08:01;;;;;;;8.03;6.57;;;16.10;1.00;;;;;;5031783;28;20218;-68
2021/10/03 09:10:28;;;;;;;9.93;6.93;;;16.00;1.00;;;;;;5031889;28;20219;-67
2021/10/03 09:12:57;;;;;;;8.57;6.60;;;16.00;28.80;;;;;;5031460;28;20214;-66
2021/10/03 09:15:25;;;;;;;10.47;6.80;;;16.00;18.60;;;;;;5031539;28;20276;-66
2021/10/03 09:17:53;;;;;;;8.60;6.87;;;16.00;75.20;;;;;;5031800;28;20210;-66
2021/10/03 09:20:23;;;;;;;8.10;6.30;;;16.00;92.90;;;;;;5031673;28;20210;-66
2021/10/03 09:22:58;;;;;;;8.00;6.47;;;16.00;94.50;;;;;;5031503;28;20232;-65
2021/10/03 09:25:47;;;;;;;9.37;6.63;;;16.00;97.60;;;;;;5031153;28;20244;-65
2021/10/03 09:28:17;;;;;;;9.97;6.60;;;16.00;88.80;;;;;;5028535;28;20257;-67
2021/10/03 09:31:21;;;;;;;9.33;5.90;;;16.00;99.90;;;;;;5031691;28;20212;-66
2021/10/03 09:33:51;;;;;;;8.63;6.03;;;16.10;86.40;;;;;;5025089;28;20205;-66
2021/10/03 09:36:20;;;;;;;9.87;6.87;;;16.00;99.90;;;;;;5031228;28;20202;-66
2021/10/03 09:39:07;;;;;;;10.87;7.03;;;16.00;99.90;;;;;;5031369;28;20230;-66
2021/10/03 09:45:08;;;;;;;8.13;6.80;;;16.00;99.90;;;;;;5028164;28;20198;-71
2021/10/03 09:47:35;;;;;;;8.60;6.13;;;16.10;99.90;;;;;;5030934;28;20973;-73
2021/10/03 09:50:24;;;;;;;9.33;6.60;;;16.10;99.90;;;;;;5030533;28;20234;-71
2021/10/03 09:56:00;;;;;;;10.70;6.70;;;16.20;85.40;;;;;;5029349;28;20209;-70
2021/10/03 09:58:29;;;;;;;8.70;6.47;;;16.20;88.50;;;;;;5049816;23;20231;-70
2021/10/03 10:01:18;;;;;;;6.77;5.63;;;16.30;97.50;;;;;;5011432;28;20216;-70
2021/10/03 10:03:45;;;;;;;8.97;6.60;;;16.30;49.50;;;;;;5012728;28;20286;-70
2021/10/03 10:06:12;;;;;;;7.93;6.33;;;16.30;69.10;;;;;;5015182;28;20216;-67
2021/10/03 10:08:55;;;;;;;8.53;6.53;;;16.30;16.90;;;;;;5022745;28;20230;-67
2021/10/03 10:11:32;;;;;;;9.50;6.33;;;16.40;37.70;;;;;;5034951;28;20646;-68
2021/10/03 10:14:02;;;;;;;7.33;6.03;;;16.40;38.00;;;;;;5035225;28;20740;-67
2021/10/03 10:16:31;;;;;;;9.00;6.10;;;16.50;1.00;;;;;;5034907;28;20214;-68
2021/10/03 10:19:30;;;;;;;7.90;5.67;;;16.50;1.00;;;;;;5034956;28;20229;-67
2021/10/03 10:22:29;;;;;;;6.57;5.77;;;16.50;1.00;;;;;;5034933;28;20580;-67
2021/10/03 10:24:57;;;;;;;8.13;5.63;;;16.50;1.00;;;;;;5034765;28;20276;-69
2021/10/03 10:28:01;;;;;;;8.10;5.57;;;16.50;1.00;;;;;;5035186;28;20289;-70
2021/10/03 10:30:29;;;;;;;13.73;6.00;;;16.50;1.00;;;;;;5034124;28;20686;-69
2021/10/03 10:33:17;;;;;;;7.90;5.90;;;16.60;1.00;;;;;;5034886;28;20564;-69
2021/10/03 10:35:48;;;;;;;7.27;5.57;;;16.60;1.10;;;;;;5034354;28;20202;-69
2021/10/03 10:38:16;;;;;;;7.13;5.47;;;16.50;1.00;;;;;;5034822;28;20226;-69
2021/10/03 10:40:43;;;;;;;8.40;5.83;;;16.60;1.00;;;;;;5034900;28;20210;-70
2021/10/03 10:43:43;;;;;;;7.90;6.10;;;16.60;1.00;;;;;;5034470;28;20211;-67
2021/10/03 10:46:47;;;;;;;8.87;6.10;;;16.50;28.70;;;;;;5034046;28;20213;-67
2021/10/03 10:49:39;;;;;;;6.53;5.77;;;16.50;50.50;;;;;;5035842;28;20229;-68
2021/10/03 10:52:25;;;;;;;7.80;6.03;;;16.50;68.70;;;;;;5034501;28;20294;-72
2021/10/03 10:55:26;;;;;;;10.67;5.97;;;16.50;99.20;;;;;;5033983;28;20214;-71
2021/10/03 10:58:20;;;;;;;9.47;6.20;;;16.70;92.70;;;;;;5034640;28;20217;-67
2021/10/03 11:01:11;;;;;;;7.33;6.03;;;16.70;26.40;;;;;;5032187;28;20210;-67
2021/10/03 11:04:07;;;;;;;9.57;6.37;;;16.70;1.00;;;;;;5034493;28;20742;-67
2021/10/03 11:07:02;;;;;;;8.70;6.30;;;16.70;22.40;;;;;;5034070;28;20213;-66
2021/10/03 11:09:33;;;;;;;8.57;6.60;;;16.80;16.20;;;;;;5033881;28;20646;-67
2021/10/03 11:12:07;;;;;;;10.47;6.17;;;16.80;1.00;;;;;;5033942;28;20214;-67
2021/10/03 11:14:34;;;;;;;8.83;6.30;;;16.80;19.40;;;;;;5033397;28;20734;-67
2021/10/03 11:17:04;;;;;;;6.70;5.60;;;16.80;26.70;;;;;;5033260;28;20219;-66
2021/10/03 11:19:41;;;;;;;9.03;6.17;;;16.80;29.70;;;;;;5033931;28;20226;-71
2021/10/03 11:22:09;;;;;;;9.00;5.97;;;16.80;19.70;;;;;;5033387;28;20205;-70
2021/10/03 11:24:38;;;;;;;7.67;6.23;;;16.80;1.00;;;;;;5033808;28;20597;-71
2021/10/03 11:27:08;;;;;;;8.17;6.07;;;16.80;1.00;;;;;;5033872;28;20206;-70
2021/10/03 11:29:36;;;;;;;7.13;5.53;;;16.90;1.00;;;;;;5033745;28;20237;-71
2021/10/03 11:32:05;;;;;;;7.03;5.83;;;16.80;1.00;;;;;;5033296;28;20202;-70
2021/10/03 11:34:34;;;;;;;7.97;5.83;;;16.80;1.00;;;;;;5033359;28;20213;-73
2021/10/03 11:37:04;;;;;;;8.17;6.00;;;16.80;1.00;;;;;;5033868;28;20206;-68
2021/10/03 11:39:37;;;;;;;6.67;5.67;;;16.80;1.00;;;;;;5033675;28;20226;-70
2021/10/03 11:42:06;;;;;;;8.67;5.90;;;16.80;1.00;;;;;;5033418;28;20264;-67
2021/10/03 11:44:33;;;;;;;9.60;6.20;;;16.70;1.00;;;;;;5033386;28;20202;-67
2021/10/03 11:47:03;;;;;;;7.90;6.00;;;16.70;1.00;;;;;;5033517;28;20210;-67
2021/10/03 11:49:31;;;;;;;6.83;6.07;;;16.70;1.00;;;;;;5033293;28;20249;-67
2021/10/03 11:51:58;;;;;;;10.10;6.23;;;16.70;1.00;;;;;;5033384;28;20214;-67
2021/10/03 11:54:35;;;;;;;9.90;6.43;;;16.70;21.00;;;;;;5033452;28;20202;-67
2021/10/03 11:57:29;;;;;;;7.13;6.40;;;16.70;7.50;;;;;;5033527;28;20216;-67
2021/10/03 12:00:08;;;;;;;8.30;6.60;;;16.70;25.00;;;;;;4997044;28;20616;-68
2021/10/03 12:02:37;;;;;;;6.77;5.80;;;16.70;37.50;;;;;;5033147;28;20228;-68
2021/10/03 12:05:04;;;;;;;8.20;6.30;;;16.70;1.00;;;;;;5032920;28;20213;-69
2021/10/03 12:07:31;;;;;;;7.37;6.27;;;16.70;1.00;;;;;;5033001;28;20209;-68
2021/10/03 12:10:01;;;;;;;9.60;6.73;;;16.70;11.50;;;;;;5032648;28;20695;-68
2021/10/03 12:12:55;;;;;;;6.87;5.93;;;16.70;1.00;;;;;;5032777;28;20583;-67
2021/10/03 12:15:47;;;;;;;8.80;7.00;;;16.70;1.00;;;;;;5032680;28;20215;-71
2021/10/03 12:18:32;;;;;;;8.53;6.67;;;16.80;1.00;;;;;;5032520;28;20226;-70
2021/10/03 12:21:01;;;;;;;7.80;6.90;;;16.80;1.00;;;;;;5032952;28;20264;-70
2021/10/03 12:23:49;;;;;;;8.20;6.57;;;16.70;1.00;;;;;;5032331;28;20765;-71
2021/10/03 12:26:27;;;;;;;9.37;6.77;;;16.80;1.00;;;;;;5031888;28;20218;-66
2021/10/03 12:29:01;;;;;;;11.13;6.13;;;16.80;1.00;;;;;;5032344;28;20921;-66
2021/10/03 12:31:38;;;;;;;8.90;6.33;;;16.80;1.00;;;;;;5032513;28;20256;-66
2021/10/03 12:34:06;;;;;;;7.83;6.73;;;16.80;1.00;;;;;;5032550;28;20217;-67
2021/10/03 12:36:33;;;;;;;7.63;5.90;;;16.80;6.30;;;;;;5032042;28;20203;-66
2021/10/03 12:39:00;;;;;;;10.20;6.10;;;16.70;1.00;;;;;;5032285;28;20226;-66
2021/10/03 12:41:28;;;;;;;7.20;6.17;;;16.80;1.00;;;;;;5032306;28;20214;-67
2021/10/03 12:43:56;;;;;;;9.37;6.60;;;16.80;8.60;;;;;;5032572;28;20206;-66
2021/10/03 12:46:23;;;;;;;8.90;6.10;;;16.80;32.30;;;;;;5031788;28;20728;-66
2021/10/03 12:48:49;;;;;;;9.60;6.40;;;16.80;44.50;;;;;;5032397;28;20664;-65
2021/10/03 12:51:16;;;;;;;8.53;6.57;;;16.80;1.00;;;;;;5032204;28;20209;-66
2021/10/03 12:53:44;;;;;;;8.73;6.13;;;16.80;12.20;;;;;;5031957;28;20617;-66
2021/10/03 12:56:10;;;;;;;9.70;6.73;;;16.80;1.00;;;;;;5031704;28;20847;-66
2021/10/03 12:58:39;;;;;;;9.07;6.73;;;16.80;1.00;;;;;;5031729;28;20242;-67
2021/10/03 13:01:06;;;;;;;10.70;6.27;;;16.90;1.00;;;;;;5031944;28;20202;-66
2021/10/03 13:03:34;;;;;;;7.43;6.10;;;16.90;1.00;;;;;;5031967;28;20214;-66
2021/10/03 13:06:01;;;;;;;10.43;6.43;;;16.90;1.00;;;;;;5031768;28;20795;-67
2021/10/03 13:08:27;;;;;;;8.93;6.30;;;17.00;1.00;;;;;;5031699;28;20647;-66
2021/10/03 13:10:54;;;;;;;7.30;6.10;;;17.00;1.00;;;;;;5031818;28;20226;-66